Time;durP1;ratioP1;P1;durP2;ratioP2;P2;SDS_P1;SDS_P2;PMS_P1;PMS_P2;Temp;Humidity;BMP_temperature;BMP_pressure;BME280_temperature;BME280_humidity;BME280_pressure;Samples;Min_cycle;Max_cycle;Signal;HPM_P1;HPM_P2
2022/06/03 00:01:48;;;;;;;37.55;20.30;;;11.40;99.90;;;;;;5000653;28;20483;-74
2022/06/03 00:04:36;;;;;;;33.22;18.85;;;11.40;99.90;;;;;;5017465;28;20046;-74
2022/06/03 00:07:04;;;;;;;34.50;18.55;;;11.40;99.90;;;;;;5016397;28;20377;-74
2022/06/03 00:10:01;;;;;;;30.85;19.02;;;11.40;99.90;;;;;;5017252;28;20053;-74
2022/06/03 00:12:37;;;;;;;28.77;17.85;;;11.40;99.90;;;;;;4998977;28;20050;-73
2022/06/03 00:15:44;;;;;;;30.50;17.95;;;11.40;99.90;;;;;;5017726;28;20461;-74
2022/06/03 00:18:14;;;;;;;31.75;16.52;;;11.40;99.90;;;;;;4974423;28;20049;-74
2022/06/03 00:20:51;;;;;;;27.67;16.75;;;11.40;99.90;;;;;;5015948;28;20050;-74
2022/06/03 00:23:36;;;;;;;28.48;16.17;;;11.40;99.90;;;;;;5017362;28;20049;-74
2022/06/03 00:26:42;;;;;;;26.42;15.27;;;11.40;99.90;;;;;;5015782;28;20057;-75
2022/06/03 00:29:35;;;;;;;26.52;14.98;;;11.40;99.90;;;;;;4987490;28;20050;-74
2022/06/03 00:32:21;;;;;;;26.95;15.63;;;11.30;99.90;;;;;;5016880;28;20052;-74
2022/06/03 00:34:54;;;;;;;21.27;14.43;;;11.30;99.90;;;;;;5017197;28;20041;-74
2022/06/03 00:37:49;;;;;;;32.60;15.23;;;11.20;99.90;;;;;;4999633;28;20468;-74
2022/06/03 00:41:12;;;;;;;22.70;14.95;;;11.20;99.90;;;;;;5015000;28;20042;-74
2022/06/03 00:43:46;;;;;;;31.83;17.70;;;11.10;99.90;;;;;;4984268;28;20369;-73
2022/06/03 00:46:37;;;;;;;27.65;16.58;;;11.00;99.90;;;;;;5015379;28;20045;-74
2022/06/03 00:49:05;;;;;;;27.38;17.90;;;10.90;99.90;;;;;;4983685;28;20045;-73
2022/06/03 00:51:57;;;;;;;34.60;16.35;;;10.90;99.90;;;;;;5016788;28;20042;-74
2022/06/03 00:55:09;;;;;;;24.77;16.63;;;10.80;99.90;;;;;;5015461;28;20048;-74
2022/06/03 00:58:11;;;;;;;27.83;16.10;;;10.70;99.90;;;;;;5016462;28;20065;-74
2022/06/03 01:00:53;;;;;;;31.40;15.95;;;10.70;99.90;;;;;;4998075;28;20361;-73
2022/06/03 01:03:31;;;;;;;25.23;15.88;;;10.60;99.90;;;;;;4999537;28;20046;-73
2022/06/03 01:06:17;;;;;;;27.10;16.35;;;10.50;99.90;;;;;;4998019;28;20046;-74
2022/06/03 01:09:01;;;;;;;28.38;17.05;;;10.50;99.90;;;;;;5016155;28;20042;-74
2022/06/03 01:12:08;;;;;;;26.17;17.23;;;10.40;99.90;;;;;;4999476;28;20049;-73
2022/06/03 01:15:07;;;;;;;27.77;16.67;;;10.40;99.90;;;;;;5016461;28;20048;-74
2022/06/03 01:18:16;;;;;;;24.77;15.23;;;10.40;99.90;;;;;;5015979;28;20380;-74
2022/06/03 01:20:44;;;;;;;30.17;16.08;;;10.40;99.90;;;;;;4970791;28;20054;-73
2022/06/03 01:23:52;;;;;;;25.88;14.85;;;10.40;99.90;;;;;;5015826;28;20053;-73
2022/06/03 01:26:30;;;;;;;36.35;15.02;;;10.40;99.90;;;;;;4997780;28;20050;-74
2022/06/03 01:29:12;;;;;;;28.58;14.50;;;10.40;99.90;;;;;;4998930;28;20064;-73
2022/06/03 01:32:05;;;;;;;29.33;16.60;;;10.50;99.90;;;;;;5016128;28;20049;-74
2022/06/03 01:35:16;;;;;;;29.80;15.75;;;10.50;99.90;;;;;;5014553;28;20042;-73
2022/06/03 01:37:57;;;;;;;25.90;15.70;;;10.50;99.90;;;;;;5015690;28;20461;-73
2022/06/03 01:40:25;;;;;;;27.10;16.05;;;10.50;99.90;;;;;;5014432;28;20061;-73
2022/06/03 01:42:55;;;;;;;31.85;17.42;;;10.50;99.90;;;;;;4999075;28;20050;-74
2022/06/03 01:45:37;;;;;;;25.23;16.58;;;10.50;99.90;;;;;;4998576;28;20061;-73
2022/06/03 01:48:26;;;;;;;32.65;16.38;;;10.50;99.90;;;;;;5015373;28;20042;-73
2022/06/03 01:51:05;;;;;;;25.80;16.17;;;10.50;99.90;;;;;;5014469;28;20041;-73
2022/06/03 01:54:09;;;;;;;25.80;16.27;;;10.50;99.90;;;;;;5014801;28;20042;-73
2022/06/03 01:56:52;;;;;;;29.60;16.27;;;10.60;99.90;;;;;;5015250;28;20388;-73
2022/06/03 01:59:44;;;;;;;28.45;16.25;;;10.60;99.90;;;;;;5014535;28;20056;-73
2022/06/03 02:02:30;;;;;;;38.13;17.05;;;10.70;99.90;;;;;;4998171;28;20052;-74
2022/06/03 02:05:18;;;;;;;27.48;16.10;;;10.80;99.90;;;;;;5015429;28;20372;-74
2022/06/03 02:07:46;;;;;;;28.27;15.10;;;10.80;99.90;;;;;;4996861;28;20049;-74
2022/06/03 02:10:32;;;;;;;28.20;16.27;;;10.90;99.90;;;;;;5015026;28;20046;-73
2022/06/03 02:13:31;;;;;;;29.35;15.57;;;11.00;99.90;;;;;;5014006;28;20049;-74
2022/06/03 02:16:20;;;;;;;25.35;15.60;;;11.00;99.90;;;;;;5015007;28;20045;-73
2022/06/03 02:19:22;;;;;;;26.20;15.57;;;11.10;99.90;;;;;;4998397;28;20056;-74
2022/06/03 02:22:37;;;;;;;28.60;17.48;;;11.10;99.90;;;;;;5014893;28;20360;-74
2022/06/03 02:25:14;;;;;;;28.60;16.33;;;11.20;99.90;;;;;;5008385;28;20472;-73
2022/06/03 02:28:09;;;;;;;30.80;16.30;;;11.20;99.90;;;;;;5013900;28;20042;-74
2022/06/03 02:30:39;;;;;;;26.42;15.93;;;11.30;99.90;;;;;;4998228;28;20479;-73
2022/06/03 02:33:25;;;;;;;20.38;15.45;;;11.30;99.90;;;;;;4997133;28;20046;-73
2022/06/03 02:36:11;;;;;;;25.88;15.70;;;11.30;99.90;;;;;;5014995;28;20352;-74
2022/06/03 02:38:54;;;;;;;27.20;16.25;;;11.30;99.90;;;;;;4997515;28;20083;-73
2022/06/03 02:41:43;;;;;;;23.15;15.48;;;11.40;99.90;;;;;;4998029;28;20050;-74
2022/06/03 02:44:35;;;;;;;30.02;16.40;;;11.30;99.90;;;;;;5014980;28;20046;-74
2022/06/03 02:47:20;;;;;;;25.85;15.93;;;11.30;99.90;;;;;;5013721;28;20050;-73
2022/06/03 02:50:09;;;;;;;27.67;17.48;;;11.40;99.90;;;;;;5015150;28;20046;-73
2022/06/03 02:53:04;;;;;;;28.80;17.20;;;11.30;99.90;;;;;;5013782;28;20053;-73
2022/06/03 02:56:03;;;;;;;32.17;18.55;;;11.40;99.90;;;;;;5014801;28;20053;-73
2022/06/03 02:59:12;;;;;;;34.05;18.55;;;11.40;99.90;;;;;;5014610;28;20042;-73
2022/06/03 03:02:17;;;;;;;25.83;18.92;;;11.40;99.90;;;;;;5013880;28;20054;-73
2022/06/03 03:05:22;;;;;;;29.80;18.25;;;11.40;99.90;;;;;;5018517;28;20050;-73
2022/06/03 03:08:27;;;;;;;28.90;17.98;;;11.40;99.90;;;;;;4987311;28;20057;-73
2022/06/03 03:11:22;;;;;;;31.20;19.42;;;11.40;99.90;;;;;;5017679;28;20061;-73
2022/06/03 03:14:27;;;;;;;29.45;19.65;;;11.40;99.90;;;;;;5016374;28;20050;-74
2022/06/03 03:17:04;;;;;;;33.63;19.90;;;11.40;99.90;;;;;;5018485;28;20052;-73
2022/06/03 03:19:58;;;;;;;31.02;19.60;;;11.40;99.90;;;;;;5000314;28;20045;-73
2022/06/03 03:23:03;;;;;;;30.77;18.52;;;11.40;99.90;;;;;;5018288;28;20049;-74
2022/06/03 03:25:55;;;;;;;24.48;18.08;;;11.40;99.90;;;;;;5016807;28;20431;-73
2022/06/03 03:28:35;;;;;;;29.13;19.35;;;11.40;99.90;;;;;;5018087;28;20049;-73
2022/06/03 03:31:24;;;;;;;30.42;18.70;;;11.40;99.90;;;;;;5018331;28;20042;-73
2022/06/03 03:34:29;;;;;;;31.25;17.98;;;11.40;99.90;;;;;;5016913;28;20495;-73
2022/06/03 03:37:31;;;;;;;28.95;19.38;;;11.40;99.90;;;;;;5018008;28;20042;-74
2022/06/03 03:40:20;;;;;;;35.17;18.73;;;11.40;99.90;;;;;;5016882;28;20392;-74
2022/06/03 03:43:13;;;;;;;28.27;18.73;;;11.40;99.90;;;;;;5017684;28;20046;-73
2022/06/03 03:45:59;;;;;;;32.47;19.83;;;11.30;99.90;;;;;;5016471;28;20064;-73
2022/06/03 03:48:57;;;;;;;27.65;19.23;;;11.30;99.90;;;;;;5016949;28;20449;-73
2022/06/03 03:51:46;;;;;;;32.00;19.58;;;11.30;99.90;;;;;;5016959;28;20049;-73
2022/06/03 03:54:31;;;;;;;30.17;19.10;;;11.30;99.90;;;;;;5016574;28;20046;-74
2022/06/03 03:57:05;;;;;;;32.10;19.45;;;11.20;99.90;;;;;;5017585;28;20053;-73
2022/06/03 03:59:54;;;;;;;31.98;19.48;;;11.20;99.90;;;;;;5016412;28;20491;-74
2022/06/03 04:02:58;;;;;;;32.38;19.27;;;11.10;99.90;;;;;;5000712;28;20058;-74
2022/06/03 04:05:59;;;;;;;30.02;19.27;;;11.00;99.90;;;;;;4981299;28;20050;-73
2022/06/03 04:08:26;;;;;;;30.30;19.42;;;11.00;99.90;;;;;;5017645;28;20053;-73
2022/06/03 04:11:32;;;;;;;32.85;21.48;;;10.90;99.90;;;;;;5017541;28;20042;-74
2022/06/03 04:14:25;;;;;;;33.60;20.55;;;10.80;99.90;;;;;;4935936;29;20059;-73
2022/06/03 04:17:13;;;;;;;34.40;21.30;;;10.70;99.90;;;;;;4937936;29;20058;-74
2022/06/03 04:20:08;;;;;;;33.38;21.27;;;10.60;99.90;;;;;;5000347;28;20054;-73
2022/06/03 04:23:13;;;;;;;33.80;21.30;;;10.60;99.90;;;;;;5017167;28;20049;-74
2022/06/03 04:26:08;;;;;;;37.92;22.15;;;10.50;99.90;;;;;;4999080;28;20065;-73
2022/06/03 04:28:58;;;;;;;36.55;21.85;;;10.50;99.90;;;;;;5017038;28;20338;-73
2022/06/03 04:31:38;;;;;;;40.33;22.98;;;10.40;99.90;;;;;;5017400;28;20049;-73
2022/06/03 04:34:26;;;;;;;33.10;23.63;;;10.40;99.90;;;;;;5015626;28;20042;-73
2022/06/03 04:37:30;;;;;;;38.45;24.30;;;10.30;99.90;;;;;;4977737;28;20080;-73
2022/06/03 04:40:07;;;;;;;37.90;23.60;;;10.30;99.90;;;;;;4998947;28;20056;-73
2022/06/03 04:43:00;;;;;;;37.15;23.20;;;10.30;99.90;;;;;;5017162;28;20061;-73
2022/06/03 04:45:45;;;;;;;34.80;24.60;;;10.30;99.90;;;;;;4981890;28;20057;-73
2022/06/03 04:48:45;;;;;;;36.08;24.58;;;10.20;99.90;;;;;;4999949;28;20045;-73
2022/06/03 04:51:33;;;;;;;39.85;25.98;;;10.20;99.90;;;;;;4980292;28;20057;-73
2022/06/03 04:54:39;;;;;;;38.17;25.75;;;10.20;99.90;;;;;;5015206;28;20065;-73
2022/06/03 04:57:41;;;;;;;37.70;26.90;;;10.20;99.90;;;;;;4958921;28;20049;-73
2022/06/03 05:00:25;;;;;;;41.05;27.27;;;10.30;99.90;;;;;;4998046;28;20061;-73
2022/06/03 05:03:27;;;;;;;41.83;26.73;;;10.40;99.90;;;;;;5016499;28;20380;-74
2022/06/03 05:06:20;;;;;;;45.13;26.60;;;10.40;99.90;;;;;;4998182;28;20468;-73
2022/06/03 05:09:25;;;;;;;38.22;25.40;;;10.50;99.90;;;;;;5016002;28;20361;-74
2022/06/03 05:12:34;;;;;;;40.90;26.27;;;10.50;99.90;;;;;;5016041;28;20052;-73
2022/06/03 05:15:22;;;;;;;40.83;25.67;;;10.60;99.90;;;;;;5015624;28;20042;-73
2022/06/03 05:18:05;;;;;;;39.72;24.05;;;10.80;99.90;;;;;;5016142;28;20061;-74
2022/06/03 05:20:43;;;;;;;40.60;24.75;;;10.70;99.90;;;;;;4997656;28;20042;-75
2022/06/03 05:23:35;;;;;;;38.72;23.50;;;10.80;99.90;;;;;;5014906;28;20057;-75
2022/06/03 05:26:36;;;;;;;36.83;22.30;;;10.90;99.90;;;;;;4997587;28;20384;-73
2022/06/03 05:29:29;;;;;;;38.38;22.38;;;11.10;99.90;;;;;;5014690;28;20061;-74
2022/06/03 05:32:20;;;;;;;38.55;21.63;;;11.20;99.90;;;;;;5016315;28;20050;-74
2022/06/03 05:34:47;;;;;;;31.50;19.48;;;11.40;99.90;;;;;;5015933;28;20049;-73
2022/06/03 05:37:30;;;;;;;33.50;18.98;;;11.60;99.90;;;;;;4998632;28;20405;-74
2022/06/03 05:40:19;;;;;;;28.10;18.67;;;11.70;99.90;;;;;;5014560;28;20045;-73
2022/06/03 05:42:59;;;;;;;27.27;16.77;;;11.90;99.90;;;;;;5015462;28;20050;-74
2022/06/03 05:45:44;;;;;;;25.60;16.85;;;12.10;99.90;;;;;;5015477;28;20060;-74
2022/06/03 05:48:27;;;;;;;24.70;16.20;;;12.30;99.90;;;;;;5015364;28;20045;-74
2022/06/03 05:51:04;;;;;;;24.35;14.40;;;12.50;99.90;;;;;;5015329;28;20377;-74
2022/06/03 05:53:44;;;;;;;22.90;14.40;;;12.70;99.90;;;;;;5014537;28;20072;-74
2022/06/03 05:56:39;;;;;;;28.88;14.82;;;12.80;99.90;;;;;;4997609;28;20464;-74
2022/06/03 05:59:21;;;;;;;26.77;13.73;;;13.00;99.90;;;;;;5012905;28;20050;-74
2022/06/03 06:02:05;;;;;;;26.77;13.85;;;13.10;99.90;;;;;;5014290;28;20049;-74
2022/06/03 06:05:08;;;;;;;27.23;13.30;;;13.10;99.90;;;;;;5015234;28;20053;-74
2022/06/03 06:07:54;;;;;;;26.13;14.60;;;13.20;99.90;;;;;;4996976;28;20046;-74
2022/06/03 06:10:25;;;;;;;21.83;13.85;;;13.30;99.90;;;;;;5014946;28;20065;-74
2022/06/03 06:13:14;;;;;;;21.92;13.60;;;13.30;99.90;;;;;;5014043;28;20041;-75
2022/06/03 06:16:08;;;;;;;28.02;13.48;;;13.30;99.90;;;;;;5015248;28;20050;-74
2022/06/03 06:18:58;;;;;;;28.55;13.30;;;13.30;99.90;;;;;;4997911;28;20052;-75
2022/06/03 06:21:37;;;;;;;24.80;13.15;;;13.30;99.90;;;;;;4997650;28;20049;-75
2022/06/03 06:24:11;;;;;;;26.85;14.63;;;13.30;99.90;;;;;;4995840;28;20468;-75
2022/06/03 06:27:03;;;;;;;27.23;14.65;;;13.30;99.90;;;;;;5012867;28;20057;-74
2022/06/03 06:29:50;;;;;;;27.83;14.38;;;13.30;99.90;;;;;;5014206;28;20053;-75
2022/06/03 06:32:34;;;;;;;24.45;14.85;;;13.20;99.90;;;;;;5013315;28;20057;-73
2022/06/03 06:35:30;;;;;;;28.08;14.55;;;13.20;99.90;;;;;;5015360;28;20050;-75
2022/06/03 06:38:21;;;;;;;27.40;15.75;;;13.30;99.90;;;;;;5017518;28;20045;-75
2022/06/03 06:41:10;;;;;;;34.95;17.13;;;13.20;99.90;;;;;;5017948;28;20057;-74
2022/06/03 06:43:48;;;;;;;27.20;15.70;;;13.20;99.90;;;;;;5018964;28;20050;-74
2022/06/03 06:46:19;;;;;;;26.00;16.80;;;13.20;99.90;;;;;;5017799;28;20061;-74
2022/06/03 06:49:25;;;;;;;32.05;16.60;;;13.20;99.90;;;;;;5018672;28;20057;-75
2022/06/03 06:51:59;;;;;;;32.80;15.70;;;13.30;99.90;;;;;;5002392;28;20072;-75
2022/06/03 06:54:47;;;;;;;35.67;16.52;;;13.40;99.90;;;;;;5017989;28;20058;-74
2022/06/03 06:57:40;;;;;;;27.83;14.68;;;13.50;99.90;;;;;;5018846;28;20368;-74
2022/06/03 07:00:24;;;;;;;29.30;15.02;;;13.60;99.90;;;;;;5017680;28;20472;-75
2022/06/03 07:02:59;;;;;;;30.15;13.93;;;13.70;99.90;;;;;;5018529;28;20049;-74
2022/06/03 07:05:45;;;;;;;29.73;14.68;;;13.80;99.90;;;;;;5001693;28;20053;-73
2022/06/03 07:08:21;;;;;;;30.30;13.98;;;13.90;99.90;;;;;;5018380;28;20049;-74
2022/06/03 07:10:56;;;;;;;27.63;14.15;;;14.00;99.90;;;;;;5017655;28;20038;-75
2022/06/03 07:13:32;;;;;;;24.83;13.43;;;14.00;99.90;;;;;;5017057;28;20042;-72
2022/06/03 07:22:25;;;;;;;20.60;12.77;;;14.30;99.90;;;;;;5018319;28;20049;-74
2022/06/03 07:24:58;;;;;;;32.88;12.43;;;14.40;99.90;;;;;;5000469;28;20042;-73
2022/06/03 07:27:35;;;;;;;25.55;11.70;;;14.40;99.90;;;;;;4999826;28;20046;-73
2022/06/03 07:30:24;;;;;;;23.23;11.77;;;14.50;99.90;;;;;;5017724;28;20054;-73
2022/06/03 07:32:59;;;;;;;22.55;12.10;;;14.60;99.90;;;;;;4999293;28;20058;-73
2022/06/03 07:35:38;;;;;;;28.65;11.90;;;14.60;99.90;;;;;;5000887;28;20045;-73
2022/06/03 07:38:17;;;;;;;27.27;11.65;;;14.70;99.90;;;;;;5017641;28;20038;-74
2022/06/03 07:40:58;;;;;;;22.88;11.05;;;14.80;99.90;;;;;;5016100;28;20054;-73
2022/06/03 07:43:46;;;;;;;26.55;12.32;;;14.80;99.90;;;;;;5000560;28;20046;-74
2022/06/03 07:46:21;;;;;;;27.83;11.15;;;14.90;99.90;;;;;;5016595;28;20465;-74
2022/06/03 07:48:49;;;;;;;25.10;11.40;;;14.90;99.90;;;;;;5017625;28;20381;-74
2022/06/03 07:51:34;;;;;;;24.50;11.45;;;15.00;99.90;;;;;;5000430;28;20046;-73
2022/06/03 07:54:29;;;;;;;29.15;10.98;;;15.10;99.90;;;;;;4999461;28;20050;-74
2022/06/03 07:57:22;;;;;;;27.70;10.73;;;15.20;99.90;;;;;;5013786;28;20050;-74
2022/06/03 07:59:54;;;;;;;22.35;10.43;;;15.20;99.90;;;;;;5029914;28;20054;-74
2022/06/03 08:02:23;;;;;;;22.50;10.38;;;15.30;99.90;;;;;;5037522;28;20379;-74
2022/06/03 08:05:15;;;;;;;19.92;10.10;;;15.40;99.90;;;;;;5036628;28;20072;-74
2022/06/03 08:11:00;;;;;;;23.02;9.43;;;15.50;99.90;;;;;;5037270;28;20494;-74
2022/06/03 08:13:48;;;;;;;18.95;8.93;;;15.60;99.90;;;;;;5036093;28;20049;-74
2022/06/03 08:16:27;;;;;;;21.30;9.00;;;15.80;99.90;;;;;;5036154;28;20049;-74
2022/06/03 08:19:02;;;;;;;19.58;9.02;;;16.10;99.90;;;;;;5035006;28;20365;-74
2022/06/03 08:21:44;;;;;;;23.58;9.50;;;16.30;99.90;;;;;;5036876;28;20070;-72
2022/06/03 08:24:15;;;;;;;20.05;8.52;;;16.60;99.90;;;;;;5035484;28;20045;-74
2022/06/03 08:26:46;;;;;;;16.35;8.68;;;17.00;99.90;;;;;;5055660;28;20041;-73
2022/06/03 08:29:42;;;;;;;17.10;8.20;;;17.30;99.90;;;;;;5056716;28;20064;-73
2022/06/03 08:32:41;;;;;;;25.48;8.85;;;17.70;99.90;;;;;;5052145;28;20060;-72
2022/06/03 08:35:14;;;;;;;20.38;7.75;;;18.00;99.90;;;;;;5055506;28;20045;-74
2022/06/03 08:37:51;;;;;;;16.88;8.13;;;18.20;99.90;;;;;;5056720;28;20059;-75
2022/06/03 08:40:34;;;;;;;14.75;7.50;;;18.30;99.90;;;;;;5035843;28;20042;-74
2022/06/03 08:43:24;;;;;;;16.27;7.45;;;18.40;99.90;;;;;;5041025;28;20479;-76
2022/06/03 08:45:58;;;;;;;14.75;7.35;;;18.50;99.90;;;;;;5054389;28;20045;-74
2022/06/03 08:48:34;;;;;;;14.23;7.05;;;18.70;99.90;;;;;;5047296;28;20049;-73
2022/06/03 08:51:11;;;;;;;13.95;7.03;;;18.80;99.90;;;;;;5036457;28;20041;-74
2022/06/03 08:53:51;;;;;;;18.17;6.97;;;18.80;99.90;;;;;;5035213;28;20041;-75
2022/06/03 08:56:35;;;;;;;19.30;6.82;;;18.80;99.90;;;;;;5039302;28;20049;-74
2022/06/03 08:59:13;;;;;;;13.85;6.32;;;18.80;99.90;;;;;;5013007;28;20046;-73
2022/06/03 09:01:52;;;;;;;18.08;6.88;;;18.80;99.90;;;;;;5014901;28;20060;-74
2022/06/03 09:04:22;;;;;;;17.92;6.80;;;19.00;99.90;;;;;;5026233;28;20112;-73
2022/06/03 09:07:00;;;;;;;13.40;7.32;;;19.10;99.90;;;;;;5035002;28;20052;-73
2022/06/03 09:09:54;;;;;;;13.77;6.75;;;19.20;99.90;;;;;;5035823;28;20049;-73
2022/06/03 09:12:36;;;;;;;14.98;6.60;;;19.20;99.90;;;;;;5034594;28;20049;-77
2022/06/03 09:15:11;;;;;;;15.70;6.80;;;19.00;99.90;;;;;;5035368;28;20041;-73
2022/06/03 09:17:40;;;;;;;18.00;7.20;;;18.90;99.90;;;;;;5035643;28;20046;-73
2022/06/03 09:20:25;;;;;;;14.50;6.32;;;18.80;99.90;;;;;;5034739;28;20064;-73
2022/06/03 09:23:02;;;;;;;18.33;6.53;;;18.70;99.90;;;;;;5036444;28;20041;-72
2022/06/03 09:25:33;;;;;;;11.15;5.97;;;18.70;99.90;;;;;;5035587;28;20037;-73
2022/06/03 09:28:05;;;;;;;24.65;7.93;;;18.70;99.90;;;;;;5036015;28;20369;-74
2022/06/03 09:30:38;;;;;;;12.43;6.60;;;18.70;99.90;;;;;;5035948;28;20061;-74
2022/06/03 09:33:11;;;;;;;12.45;6.18;;;18.70;99.90;;;;;;5034827;28;20048;-73
2022/06/03 09:35:42;;;;;;;9.65;6.15;;;18.70;99.90;;;;;;5018539;28;20041;-74
2022/06/03 09:38:12;;;;;;;13.63;6.70;;;18.70;99.90;;;;;;5035846;28;20057;-74
2022/06/03 09:40:43;;;;;;;11.45;6.75;;;18.70;99.40;;;;;;5017362;28;20072;-74
2022/06/03 09:43:24;;;;;;;16.55;6.85;;;18.70;99.90;;;;;;5018641;28;20053;-74
2022/06/03 09:45:55;;;;;;;10.65;6.30;;;18.80;99.60;;;;;;5034863;28;20065;-74
2022/06/03 09:48:27;;;;;;;16.20;6.75;;;18.90;99.00;;;;;;5035741;28;20037;-74
2022/06/03 09:51:02;;;;;;;12.38;6.13;;;19.10;99.00;;;;;;5035753;28;20053;-74
2022/06/03 09:53:35;;;;;;;12.65;6.05;;;19.40;97.50;;;;;;5033780;28;20364;-74
2022/06/03 09:56:09;;;;;;;16.20;6.72;;;19.60;97.80;;;;;;5034939;28;20041;-74
2022/06/03 09:58:36;;;;;;;17.77;6.25;;;19.90;96.20;;;;;;5034960;28;20049;-74
2022/06/03 10:01:09;;;;;;;12.23;6.00;;;20.20;96.30;;;;;;5034056;28;20053;-74
2022/06/03 10:03:38;;;;;;;10.57;5.63;;;20.60;94.90;;;;;;5034794;28;20053;-74
2022/06/03 10:06:42;;;;;;;9.27;5.57;;;20.80;95.20;;;;;;5033878;28;20053;-74
2022/06/03 10:14:26;;;;;;;13.10;5.63;;;21.70;91.60;;;;;;5033691;28;20041;-73
2022/06/03 10:16:54;;;;;;;10.05;4.80;;;22.00;92.10;;;;;;5034691;28;20060;-73
2022/06/03 10:19:21;;;;;;;10.80;5.88;;;22.30;92.30;;;;;;5033697;28;20061;-74
2022/06/03 10:21:54;;;;;;;10.48;5.18;;;22.40;90.50;;;;;;5016924;28;20388;-75
2022/06/03 10:24:30;;;;;;;11.95;5.85;;;22.50;91.00;;;;;;5034557;28;20056;-75
2022/06/03 10:27:01;;;;;;;14.10;5.70;;;22.70;87.50;;;;;;5033777;28;20049;-74
2022/06/03 10:29:29;;;;;;;9.73;5.57;;;22.70;85.90;;;;;;5034471;28;20057;-74
2022/06/03 10:32:06;;;;;;;;;;;22.70;87.30;;;;;;5035647;28;20056;-75
2022/06/03 10:34:39;;;;;;;10.38;5.60;;;22.80;84.10;;;;;;5033927;28;19925;-75
2022/06/03 10:37:11;;;;;;;14.00;5.70;;;22.70;85.80;;;;;;5034761;28;20042;-75
2022/06/03 10:39:43;;;;;;;10.13;5.60;;;22.60;86.00;;;;;;5034177;28;20042;-75
2022/06/03 10:42:19;;;;;;;9.48;5.70;;;22.40;83.90;;;;;;5035091;28;20053;-75
2022/06/03 10:44:50;;;;;;;11.02;4.90;;;22.20;84.10;;;;;;5034492;28;20057;-74
2022/06/03 10:47:43;;;;;;;14.95;5.70;;;22.00;85.00;;;;;;5033571;28;20060;-74
2022/06/03 10:50:23;;;;;;;9.50;4.90;;;21.80;83.60;;;;;;5034949;28;20045;-75
2022/06/03 11:01:41;;;;;;;14.57;5.57;;;21.40;85.00;;;;;;5034848;28;20056;-75
2022/06/03 11:04:39;;;;;;;10.73;5.20;;;21.30;84.40;;;;;;5017697;28;20049;-75
2022/06/03 11:07:26;;;;;;;12.98;4.93;;;21.30;83.00;;;;;;5033793;28;20049;-75
2022/06/03 11:09:56;;;;;;;9.20;4.85;;;21.30;83.80;;;;;;5034371;28;20049;-75
2022/06/03 11:12:25;;;;;;;12.63;5.85;;;21.30;82.60;;;;;;5033601;28;20046;-74
2022/06/03 11:14:53;;;;;;;10.23;5.60;;;21.30;82.70;;;;;;5017548;28;20056;-75
2022/06/03 11:17:22;;;;;;;;;;;21.30;81.90;;;;;;5035106;28;20045;-75
2022/06/03 11:19:56;;;;;;;11.50;5.15;;;21.30;79.80;;;;;;5033421;28;19921;-75
2022/06/03 11:22:24;;;;;;;10.38;5.10;;;21.30;79.50;;;;;;5034689;28;20045;-75
2022/06/03 11:25:04;;;;;;;11.40;5.28;;;21.30;80.70;;;;;;5038138;28;20158;-74
2022/06/03 11:27:35;;;;;;;17.83;5.43;;;21.30;79.80;;;;;;5019180;28;20057;-74
2022/06/03 11:30:13;;;;;;;11.00;5.30;;;21.30;80.70;;;;;;5037691;28;20049;-74
2022/06/03 11:32:45;;;;;;;14.27;5.97;;;21.30;80.30;;;;;;5036557;28;20052;-73
2022/06/03 11:35:21;;;;;;;14.10;5.50;;;21.40;80.20;;;;;;5020208;28;20044;-73
2022/06/03 11:37:54;;;;;;;12.73;5.68;;;21.30;80.30;;;;;;5037620;28;20463;-73
2022/06/03 11:40:37;;;;;;;15.95;5.85;;;21.30;79.70;;;;;;5036262;28;20045;-74
2022/06/03 11:43:16;;;;;;;10.15;4.93;;;21.30;79.10;;;;;;5037445;28;20391;-74
2022/06/03 11:46:07;;;;;;;17.73;5.55;;;21.30;79.70;;;;;;5036456;28;20120;-73
2022/06/03 11:48:38;;;;;;;13.30;5.88;;;21.30;79.40;;;;;;5037197;28;20477;-73
2022/06/03 11:51:07;;;;;;;12.23;5.45;;;21.30;79.00;;;;;;5037348;28;20056;-73
2022/06/03 11:53:41;;;;;;;10.63;5.32;;;21.30;79.20;;;;;;5036586;28;20042;-74
2022/06/03 11:56:11;;;;;;;13.35;5.30;;;21.30;79.30;;;;;;5036913;28;20041;-74
2022/06/03 11:59:01;;;;;;;9.80;5.20;;;21.40;80.20;;;;;;5037079;28;20357;-74
2022/06/03 12:01:50;;;;;;;11.88;5.47;;;21.40;79.20;;;;;;5019977;28;20049;-74
2022/06/03 12:04:37;;;;;;;13.07;6.18;;;21.40;80.00;;;;;;5020113;28;20045;-75
2022/06/03 12:07:06;;;;;;;14.18;6.40;;;21.50;80.70;;;;;;5036113;28;20050;-74
2022/06/03 12:09:51;;;;;;;13.07;6.47;;;21.60;80.40;;;;;;5019648;28;20041;-74
2022/06/03 12:15:35;;;;;;;11.43;6.35;;;21.70;78.90;;;;;;5037631;28;20045;-74
2022/06/03 12:18:06;;;;;;;14.95;6.55;;;21.60;79.00;;;;;;5019898;28;20037;-74
2022/06/03 12:20:51;;;;;;;13.77;5.57;;;21.60;78.90;;;;;;5035956;28;20045;-74
2022/06/03 12:23:19;;;;;;;12.05;6.68;;;21.60;79.40;;;;;;5020178;28;20072;-74
2022/06/03 12:25:57;;;;;;;15.63;8.18;;;21.70;79.00;;;;;;5036418;28;20060;-74
2022/06/03 12:28:29;;;;;;;18.15;7.95;;;21.70;77.90;;;;;;5037198;28;20341;-74
2022/06/03 12:31:02;;;;;;;14.77;6.97;;;21.80;75.30;;;;;;5037160;28;20045;-75
2022/06/03 12:33:56;;;;;;;15.57;6.95;;;21.80;78.20;;;;;;5035737;28;20388;-75
2022/06/03 12:36:50;;;;;;;14.25;6.07;;;22.00;77.30;;;;;;5035860;28;20054;-75
2022/06/03 12:39:18;;;;;;;12.52;5.60;;;22.10;77.80;;;;;;5036228;28;20048;-75
2022/06/03 12:41:46;;;;;;;16.27;6.13;;;22.20;78.60;;;;;;5036799;28;20048;-75
2022/06/03 12:44:33;;;;;;;14.70;6.10;;;22.20;78.10;;;;;;5037069;28;20052;-75
2022/06/03 12:47:31;;;;;;;16.13;6.10;;;22.40;76.70;;;;;;5035740;28;20049;-75
2022/06/03 12:50:04;;;;;;;13.63;6.10;;;22.40;76.70;;;;;;5018943;28;20049;-75
2022/06/03 12:52:35;;;;;;;17.33;6.28;;;22.40;76.70;;;;;;5035955;28;20056;-75
2022/06/03 12:55:14;;;;;;;15.73;6.55;;;22.40;76.70;;;;;;5019368;28;20046;-75
2022/06/03 12:57:47;;;;;;;13.65;6.47;;;22.50;76.10;;;;;;5040915;28;20482;-75
2022/06/03 13:00:17;;;;;;;15.27;6.22;;;22.50;76.30;;;;;;5055808;28;20045;-75
2022/06/03 13:02:58;;;;;;;16.52;7.45;;;22.60;76.70;;;;;;5056386;28;20053;-75
2022/06/03 13:05:40;;;;;;;12.80;7.10;;;22.70;74.00;;;;;;5056213;28;20052;-75
2022/06/03 13:08:26;;;;;;;13.43;6.72;;;22.70;75.80;;;;;;5055866;28;20049;-72
2022/06/03 13:11:09;;;;;;;13.10;5.75;;;22.70;75.90;;;;;;5056233;28;20040;-75
2022/06/03 13:13:47;;;;;;;13.38;5.95;;;22.80;75.60;;;;;;5055064;28;20053;-75
2022/06/03 13:16:21;;;;;;;13.50;5.45;;;22.90;74.80;;;;;;5056093;28;20037;-75
2022/06/03 13:18:56;;;;;;;12.63;5.85;;;23.00;76.20;;;;;;5056495;28;20067;-75
2022/06/03 13:21:29;;;;;;;9.90;4.68;;;23.00;75.90;;;;;;5056099;28;20044;-75
2022/06/03 13:24:21;;;;;;;10.55;4.60;;;23.00;76.40;;;;;;5056373;28;20045;-73
2022/06/03 13:27:03;;;;;;;11.30;5.05;;;23.10;75.70;;;;;;5055048;28;20045;-75
2022/06/03 13:29:47;;;;;;;12.05;5.22;;;23.10;74.70;;;;;;5055794;28;20091;-75
2022/06/03 13:32:35;;;;;;;13.10;5.78;;;23.40;74.30;;;;;;5054220;28;20048;-75
2022/06/03 13:35:23;;;;;;;;;;;23.40;71.50;;;;;;5049096;28;20052;-75
2022/06/03 13:37:57;;;;;;;18.48;5.70;;;23.50;72.50;;;;;;5055661;28;19921;-75
2022/06/03 13:40:25;;;;;;;11.38;4.75;;;23.70;72.60;;;;;;5054670;28;20044;-74
2022/06/03 13:42:57;;;;;;;12.23;6.50;;;23.60;71.90;;;;;;5056056;28;20049;-75
2022/06/03 13:45:46;;;;;;;15.10;5.20;;;23.60;72.10;;;;;;5055887;28;20383;-74
2022/06/03 13:48:24;;;;;;;15.20;5.13;;;23.40;71.90;;;;;;5055635;28;20060;-74
2022/06/03 13:50:52;;;;;;;11.10;4.90;;;23.30;72.20;;;;;;5055719;28;20371;-74
2022/06/03 13:53:30;;;;;;;9.90;4.60;;;23.20;73.10;;;;;;5054475;28;20048;-76
2022/06/03 13:56:07;;;;;;;;;;;23.20;73.50;;;;;;5056193;28;20052;-74
2022/06/03 13:58:41;;;;;;;8.60;4.30;;;23.20;74.00;;;;;;5035556;28;19921;-71
2022/06/03 14:01:27;;;;;;;9.90;4.70;;;23.50;73.80;;;;;;5017330;28;20368;-72
2022/06/03 14:04:01;;;;;;;8.90;3.95;;;24.00;73.30;;;;;;5035641;28;20054;-74
2022/06/03 14:06:37;;;;;;;11.27;4.15;;;24.60;73.90;;;;;;5034360;28;20049;-74
2022/06/03 14:09:16;;;;;;;11.18;3.72;;;25.00;72.80;;;;;;5035675;28;20053;-75
2022/06/03 14:11:47;;;;;;;9.75;4.35;;;24.90;72.40;;;;;;5035559;28;20352;-73
2022/06/03 14:14:32;;;;;;;13.48;4.25;;;25.20;72.10;;;;;;5016592;28;20049;-74
2022/06/03 14:17:47;;;;;;;10.32;3.85;;;25.10;71.80;;;;;;5017533;28;20053;-74
2022/06/03 14:20:37;;;;;;;10.32;4.53;;;24.60;72.70;;;;;;5033909;28;20046;-74
2022/06/03 14:23:10;;;;;;;12.48;4.47;;;23.80;73.40;;;;;;5034721;28;20057;-74